Terminal Aerodrome Forecast
Issued by NWS

Home | Current Version | Previous Version | Text Only | Print | Product List | Glossary On
Versions: 1 2 3 4 5 6 7 8 9 10 11 12 13 14 15 16
000
FTUS44 KTSA 270714 AAA
TAFBVO
TAF AMD
KBVO 270714Z 2707/2806 00000KT 5SM BR BKN250
      TEMPO 2707/2710 2SM BR
     FM271200 VRB03KT P6SM SCT022 BKN250
     FM271600 16007KT P6SM BKN040
     FM280100 14003KT P6SM SCT050 BKN250=

USA.gov is the U.S. government's official web portal to all federal, state and local government web resources and services.